createdAt,value
2018-03-30T00:00:56.817Z,25.20
2018-03-30T00:01:56.714Z,25.70
2018-03-30T00:02:56.612Z,25.60
2018-03-30T00:03:56.507Z,25.20
2018-03-30T00:04:56.391Z,24.40
2018-03-30T00:05:56.288Z,25.10
2018-03-30T00:06:56.187Z,24.40
2018-03-30T00:07:56.082Z,24.10
2018-03-30T00:08:55.979Z,23.60
2018-03-30T00:09:55.877Z,23.50
2018-03-30T00:10:55.778Z,23.80
2018-03-30T00:11:55.658Z,24.10
2018-03-30T00:12:55.553Z,23.90
2018-03-30T00:13:55.449Z,23.40
2018-03-30T00:14:55.347Z,24.00
2018-03-30T00:15:55.243Z,24.00
2018-03-30T00:16:55.144Z,23.90
2018-03-30T00:17:55.037Z,24.80
2018-03-30T00:18:54.920Z,24.10
2018-03-30T00:19:55.117Z,24.30
2018-03-30T00:20:54.713Z,23.50
2018-03-30T00:21:54.609Z,24.60
2018-03-30T00:22:54.507Z,24.30
2018-03-30T00:23:54.403Z,24.00
2018-03-30T00:24:54.300Z,23.80
2018-03-30T00:25:54.185Z,23.80
2018-03-30T00:26:54.081Z,24.10
2018-03-30T00:27:53.978Z,23.80
2018-03-30T00:28:53.874Z,23.50
2018-03-30T00:29:53.771Z,23.80
2018-03-30T00:30:53.669Z,22.60
2018-03-30T00:31:53.565Z,23.30
2018-03-30T00:32:53.450Z,22.80
2018-03-30T00:33:53.351Z,22.70
2018-03-30T00:34:53.242Z,23.30
2018-03-30T00:35:53.139Z,23.60
2018-03-30T00:36:53.034Z,23.00
2018-03-30T00:37:52.938Z,22.60
2018-03-30T00:38:52.828Z,22.80
2018-03-30T00:39:52.728Z,22.80
2018-03-30T00:40:52.610Z,22.20
2018-03-30T00:41:52.507Z,23.00
2018-03-30T00:42:52.403Z,23.20
2018-03-30T00:43:52.300Z,22.50
2018-03-30T00:44:52.197Z,24.60
2018-03-30T00:45:52.094Z,23.70
2018-03-30T00:46:51.996Z,22.80
2018-03-30T00:47:51.886Z,22.90
2018-03-30T00:48:51.783Z,23.80
2018-03-30T00:49:51.669Z,23.70
2018-03-30T00:50:51.568Z,24.90
2018-03-30T00:51:51.460Z,23.70
2018-03-30T00:52:51.358Z,24.90
2018-03-30T00:53:51.254Z,26.10
2018-03-30T00:54:51.150Z,25.70
2018-03-30T00:55:51.047Z,27.50
2018-03-30T00:56:50.944Z,25.80
2018-03-30T00:57:50.840Z,27.90
2018-03-30T00:58:50.737Z,28.40
2018-03-30T00:59:50.634Z,27.50
2018-03-30T01:00:50.518Z,27.80
2018-03-30T01:01:50.415Z,27.60
2018-03-30T01:02:50.312Z,29.50
2018-03-30T01:03:50.209Z,28.30
2018-03-30T01:04:50.106Z,30.70
2018-03-30T01:05:50.003Z,31.80
2018-03-30T01:06:49.899Z,32.40
2018-03-30T01:07:49.796Z,32.20
2018-03-30T01:08:49.685Z,32.50
2018-03-30T01:09:49.576Z,32.90
2018-03-30T01:10:49.472Z,33.60
2018-03-30T01:11:49.369Z,33.80
2018-03-30T01:12:49.265Z,33.40
2018-03-30T01:13:49.163Z,33.70
2018-03-30T01:14:49.060Z,33.30
2018-03-30T01:15:48.955Z,34.70
2018-03-30T01:16:48.865Z,35.00
2018-03-30T01:17:48.738Z,36.20
2018-03-30T01:18:48.634Z,36.90
2018-03-30T01:19:48.530Z,37.40
2018-03-30T01:20:48.429Z,37.80
2018-03-30T01:21:48.328Z,37.60
2018-03-30T01:22:48.221Z,37.90
2018-03-30T01:23:48.117Z,38.80
2018-03-30T01:24:48.002Z,38.40
2018-03-30T01:25:47.898Z,40.90
2018-03-30T01:26:47.793Z,39.50
2018-03-30T01:27:47.695Z,39.40
2018-03-30T01:28:47.589Z,40.30
2018-03-30T01:29:47.484Z,42.30
2018-03-30T01:30:47.381Z,42.50
2018-03-30T01:31:47.274Z,41.50
2018-03-30T01:32:47.166Z,42.90
2018-03-30T01:33:47.060Z,43.20
2018-03-30T01:34:46.957Z,42.00
2018-03-30T01:35:46.852Z,43.20
2018-03-30T01:36:46.749Z,43.80
2018-03-30T01:37:46.634Z,43.60
2018-03-30T01:38:46.529Z,45.00
2018-03-30T01:39:46.426Z,45.10
2018-03-30T01:40:46.322Z,45.80
2018-03-30T01:41:46.220Z,45.90
2018-03-30T01:42:46.117Z,44.90
2018-03-30T01:43:46.014Z,45.70
2018-03-30T01:44:46.150Z,44.80
2018-03-30T01:45:45.795Z,46.10
2018-03-30T01:46:45.691Z,47.50
2018-03-30T01:47:45.589Z,47.30
2018-03-30T01:48:45.472Z,45.60
2018-03-30T01:49:45.368Z,48.90
2018-03-30T01:50:45.265Z,50.00
2018-03-30T01:51:45.161Z,49.80
2018-03-30T01:52:45.057Z,49.10
2018-03-30T01:53:44.954Z,50.70
2018-03-30T01:54:44.840Z,49.60
2018-03-30T01:55:44.736Z,52.40
2018-03-30T01:56:44.638Z,52.50
2018-03-30T01:57:44.529Z,52.00
2018-03-30T01:58:44.426Z,55.20
2018-03-30T01:59:44.310Z,53.20
2018-03-30T02:00:44.206Z,52.30
2018-03-30T02:01:44.103Z,51.80
2018-03-30T02:02:44.001Z,54.90
2018-03-30T02:03:43.902Z,55.80
2018-03-30T02:04:43.785Z,57.10
2018-03-30T02:05:43.673Z,58.00
2018-03-30T02:06:43.584Z,57.80
2018-03-30T02:07:43.472Z,58.30
2018-03-30T02:08:43.355Z,57.40
2018-03-30T02:09:43.251Z,60.10
2018-03-30T02:10:43.149Z,57.70
2018-03-30T02:11:43.045Z,58.80
2018-03-30T02:12:42.941Z,57.90
2018-03-30T02:13:42.829Z,59.50
2018-03-30T02:14:42.723Z,59.00
2018-03-30T02:15:42.620Z,60.30
2018-03-30T02:16:42.517Z,61.00
2018-03-30T02:17:42.400Z,61.10
2018-03-30T02:18:42.297Z,60.20
2018-03-30T02:19:42.194Z,62.00
2018-03-30T02:20:42.095Z,62.90
2018-03-30T02:21:42.023Z,62.10
2018-03-30T02:22:41.872Z,61.10
2018-03-30T02:23:41.769Z,60.70
2018-03-30T02:24:41.665Z,62.20
2018-03-30T02:25:41.549Z,61.80
2018-03-30T02:26:41.445Z,61.50
2018-03-30T02:27:41.341Z,59.90
2018-03-30T02:28:41.239Z,61.10
2018-03-30T02:29:41.136Z,63.10
2018-03-30T02:30:41.022Z,61.60
2018-03-30T02:31:40.921Z,59.00
2018-03-30T02:32:40.815Z,58.50
2018-03-30T02:33:40.716Z,59.00
2018-03-30T02:34:40.594Z,59.40
2018-03-30T02:35:40.492Z,59.80
2018-03-30T02:36:40.388Z,59.10
2018-03-30T02:37:40.286Z,58.00
2018-03-30T02:38:40.172Z,58.10
2018-03-30T02:39:40.066Z,57.10
2018-03-30T02:40:39.963Z,58.30
2018-03-30T02:41:39.859Z,56.90
2018-03-30T02:42:39.756Z,58.30
2018-03-30T02:43:39.640Z,58.40
2018-03-30T02:44:39.536Z,58.10
2018-03-30T02:45:39.433Z,58.10
2018-03-30T02:46:39.340Z,57.90
2018-03-30T02:47:39.226Z,56.80
2018-03-30T02:48:39.111Z,57.40
2018-03-30T02:49:39.015Z,57.30
2018-03-30T02:50:38.905Z,58.10
2018-03-30T02:51:38.802Z,56.60
2018-03-30T02:52:38.686Z,57.40
2018-03-30T02:53:38.582Z,56.20
2018-03-30T02:54:38.478Z,57.10
2018-03-30T02:55:38.374Z,58.50
2018-03-30T02:56:38.271Z,62.50
2018-03-30T02:57:38.221Z,58.10
2018-03-30T02:58:38.054Z,59.20
2018-03-30T02:59:37.949Z,57.90
2018-03-30T03:00:37.847Z,59.00
2018-03-30T03:01:37.743Z,63.30
2018-03-30T03:02:37.627Z,63.00
2018-03-30T03:03:37.523Z,64.70
2018-03-30T03:04:37.421Z,62.10
2018-03-30T03:05:37.317Z,61.10
2018-03-30T03:06:37.215Z,60.80
2018-03-30T03:07:37.100Z,61.90
2018-03-30T03:08:36.994Z,60.00
2018-03-30T03:09:36.892Z,59.60
2018-03-30T03:10:36.788Z,59.70
2018-03-30T03:11:36.672Z,63.10
2018-03-30T03:12:36.568Z,61.50
2018-03-30T03:13:36.467Z,62.90
2018-03-30T03:14:36.362Z,61.30
2018-03-30T03:15:36.258Z,61.80
2018-03-30T03:16:36.143Z,61.50
2018-03-30T03:17:36.040Z,59.40
2018-03-30T03:18:35.936Z,59.20
2018-03-30T03:19:35.832Z,59.50
2018-03-30T03:20:35.716Z,60.90
2018-03-30T03:21:35.614Z,58.50
2018-03-30T03:22:35.509Z,60.20
2018-03-30T03:23:35.406Z,58.50
2018-03-30T03:24:35.293Z,60.40
2018-03-30T03:25:35.187Z,61.10
2018-03-30T03:26:35.085Z,61.00
2018-03-30T03:27:34.981Z,61.80
2018-03-30T03:28:34.866Z,59.40
2018-03-30T03:29:34.797Z,59.60
2018-03-30T03:30:34.659Z,61.00
2018-03-30T03:31:34.555Z,59.00
2018-03-30T03:32:34.439Z,60.50
2018-03-30T03:33:34.336Z,60.10
2018-03-30T03:34:34.233Z,59.00
2018-03-30T03:35:34.130Z,60.00
2018-03-30T03:36:34.014Z,58.90
2018-03-30T03:37:33.912Z,58.20
2018-03-30T03:38:33.806Z,58.10
2018-03-30T03:39:33.703Z,58.20
2018-03-30T03:40:33.588Z,59.50
2018-03-30T03:41:33.487Z,57.50
2018-03-30T03:42:33.382Z,58.10
2018-03-30T03:43:33.281Z,57.40
2018-03-30T03:44:33.162Z,57.20
2018-03-30T03:45:33.059Z,60.20
2018-03-30T03:46:32.955Z,59.70
2018-03-30T03:47:32.840Z,59.60
2018-03-30T03:48:32.737Z,58.20
2018-03-30T03:49:32.633Z,57.20
2018-03-30T03:50:32.530Z,59.70
2018-03-30T03:51:32.415Z,60.20
2018-03-30T03:52:32.310Z,60.00
2018-03-30T03:53:32.210Z,58.30
2018-03-30T03:54:32.103Z,57.80
2018-03-30T03:55:31.989Z,56.40
2018-03-30T03:56:31.889Z,58.40
2018-03-30T03:57:31.782Z,57.60
2018-03-30T03:58:31.678Z,58.10
2018-03-30T03:59:31.567Z,57.80
2018-03-30T04:00:31.459Z,57.10
2018-03-30T04:01:31.355Z,56.60
2018-03-30T04:02:31.243Z,56.90
2018-03-30T04:03:31.137Z,58.10
2018-03-30T04:04:31.034Z,57.40
2018-03-30T04:05:30.931Z,56.10
2018-03-30T04:06:30.813Z,55.70
2018-03-30T04:07:30.707Z,57.60
2018-03-30T04:08:30.607Z,56.90
2018-03-30T04:09:30.763Z,58.80
2018-03-30T04:10:30.388Z,56.40
2018-03-30T04:11:30.286Z,56.70
2018-03-30T04:12:30.182Z,55.60
2018-03-30T04:13:30.069Z,54.00
2018-03-30T04:14:29.962Z,55.70
2018-03-30T04:15:29.859Z,57.20
2018-03-30T04:16:29.755Z,58.10
2018-03-30T04:17:29.641Z,53.70
2018-03-30T04:18:29.537Z,54.20
2018-03-30T04:19:29.433Z,56.50
2018-03-30T04:20:29.330Z,54.20
2018-03-30T04:21:29.213Z,54.00
2018-03-30T04:22:29.110Z,56.50
2018-03-30T04:23:29.007Z,55.20
2018-03-30T04:24:29.191Z,54.30
2018-03-30T04:25:28.788Z,50.00
2018-03-30T04:26:28.688Z,50.60
2018-03-30T04:27:28.591Z,50.50
2018-03-30T04:28:28.465Z,50.80
2018-03-30T04:29:28.362Z,49.20
2018-03-30T04:30:28.259Z,50.10
2018-03-30T04:31:28.156Z,48.80
2018-03-30T04:32:28.041Z,49.50
2018-03-30T04:33:27.938Z,50.10
2018-03-30T04:34:27.866Z,50.40
2018-03-30T04:35:27.717Z,53.50
2018-03-30T04:36:27.614Z,50.90
2018-03-30T04:37:27.512Z,50.90
2018-03-30T04:38:27.410Z,49.40
2018-03-30T04:39:27.291Z,49.30
2018-03-30T04:40:27.190Z,48.60
2018-03-30T04:41:27.090Z,49.80
2018-03-30T04:42:26.969Z,49.80
2018-03-30T04:43:26.866Z,49.80
2018-03-30T04:44:27.062Z,49.20
2018-03-30T04:45:26.659Z,51.60
2018-03-30T04:46:26.544Z,51.30
2018-03-30T04:47:26.441Z,51.30
2018-03-30T04:48:26.338Z,52.50
2018-03-30T04:49:26.221Z,53.30
2018-03-30T04:50:26.117Z,51.60
2018-03-30T04:51:26.014Z,51.50
2018-03-30T04:52:25.914Z,52.50
2018-03-30T04:53:25.795Z,53.10
2018-03-30T04:54:25.692Z,51.70
2018-03-30T04:55:25.589Z,51.00
2018-03-30T04:56:25.485Z,50.90
2018-03-30T04:57:25.369Z,51.10
2018-03-30T04:58:25.266Z,48.70
2018-03-30T04:59:25.162Z,50.80
2018-03-30T05:00:25.047Z,49.80
2018-03-30T05:01:24.944Z,50.90
2018-03-30T05:02:24.841Z,50.30
2018-03-30T05:03:24.726Z,50.00
2018-03-30T05:04:24.627Z,50.10
2018-03-30T05:05:24.518Z,49.60
2018-03-30T05:06:24.414Z,49.50
2018-03-30T05:07:24.300Z,50.30
2018-03-30T05:08:24.205Z,49.70
2018-03-30T05:09:24.092Z,52.00
2018-03-30T05:10:23.989Z,52.00
2018-03-30T05:11:23.872Z,52.20
2018-03-30T05:12:23.769Z,51.80
2018-03-30T05:13:23.673Z,49.70
2018-03-30T05:14:23.576Z,49.80
2018-03-30T05:15:23.454Z,52.20
2018-03-30T05:16:23.347Z,49.60
2018-03-30T05:17:23.249Z,48.50
2018-03-30T05:18:23.138Z,48.70
2018-03-30T05:19:23.021Z,47.70
2018-03-30T05:20:22.921Z,47.90
2018-03-30T05:21:22.815Z,48.10
2018-03-30T05:22:22.700Z,48.90
2018-03-30T05:23:22.595Z,49.10
2018-03-30T05:24:22.493Z,47.30
2018-03-30T05:25:22.389Z,47.10
2018-03-30T05:26:22.275Z,48.80
2018-03-30T05:27:22.171Z,47.50
2018-03-30T05:28:22.066Z,47.50
2018-03-30T05:29:21.963Z,48.10
2018-03-30T05:30:21.859Z,49.00
2018-03-30T05:31:21.745Z,47.20
2018-03-30T05:32:21.643Z,46.00
2018-03-30T05:33:21.538Z,45.40
2018-03-30T05:34:21.434Z,44.70
2018-03-30T05:35:21.319Z,45.40
2018-03-30T05:36:21.229Z,42.80
2018-03-30T05:37:21.113Z,42.70
2018-03-30T05:38:21.008Z,40.00
2018-03-30T05:39:20.905Z,38.00
2018-03-30T05:40:20.790Z,37.00
2018-03-30T05:41:20.687Z,35.80
2018-03-30T05:42:20.589Z,34.30
2018-03-30T05:43:20.480Z,34.60
2018-03-30T05:44:20.376Z,32.70
2018-03-30T05:45:20.263Z,32.20
2018-03-30T05:46:20.216Z,31.60
2018-03-30T05:47:20.065Z,30.60
2018-03-30T05:48:19.951Z,29.80
2018-03-30T05:49:19.846Z,29.00
2018-03-30T05:50:19.743Z,27.60
2018-03-30T05:51:19.639Z,27.90
2018-03-30T05:52:19.536Z,28.40
2018-03-30T05:53:19.433Z,27.70
2018-03-30T05:54:19.319Z,27.20
2018-03-30T05:55:19.215Z,26.40
2018-03-30T05:56:19.112Z,26.20
2018-03-30T05:57:19.015Z,26.40
2018-03-30T05:58:18.905Z,25.20
2018-03-30T05:59:19.102Z,25.20
2018-03-30T06:00:18.699Z,25.20
2018-03-30T06:01:18.594Z,23.90
2018-03-30T06:02:18.494Z,23.60
2018-03-30T06:03:18.391Z,23.30
2018-03-30T06:04:18.285Z,24.70
2018-03-30T06:05:18.182Z,24.20
2018-03-30T06:06:18.078Z,23.00
2018-03-30T06:07:17.965Z,22.60
2018-03-30T06:08:17.860Z,22.00
2018-03-30T06:09:17.769Z,21.30
2018-03-30T06:10:17.653Z,21.50
2018-03-30T06:11:17.550Z,19.90
2018-03-30T06:12:17.446Z,19.60
2018-03-30T06:13:17.343Z,19.90
2018-03-30T06:14:17.240Z,19.60
2018-03-30T06:15:17.149Z,20.10
2018-03-30T06:16:17.101Z,18.80
2018-03-30T06:17:16.942Z,18.80
2018-03-30T06:18:16.839Z,19.00
2018-03-30T06:19:17.091Z,18.50
2018-03-30T06:20:16.632Z,18.60
2018-03-30T06:21:16.529Z,16.90
2018-03-30T06:22:16.426Z,18.20
2018-03-30T06:23:16.322Z,17.90
2018-03-30T06:24:16.220Z,18.20
2018-03-30T06:25:16.115Z,17.90
2018-03-30T06:26:16.026Z,17.60
2018-03-30T06:27:15.920Z,16.10
2018-03-30T06:28:15.818Z,16.50
2018-03-30T06:29:15.714Z,15.50
2018-03-30T06:30:15.614Z,16.10
2018-03-30T06:31:15.520Z,15.40
2018-03-30T06:32:15.420Z,15.40
2018-03-30T06:33:15.302Z,15.10
2018-03-30T06:34:15.211Z,14.50
2018-03-30T06:35:15.107Z,14.10
2018-03-30T06:36:15.004Z,14.60
2018-03-30T06:37:14.900Z,14.40
2018-03-30T06:38:14.823Z,14.30
2018-03-30T06:39:14.707Z,14.20
2018-03-30T06:40:14.615Z,14.40
2018-03-30T06:41:14.499Z,13.90
2018-03-30T06:42:14.396Z,10.60
2018-03-30T06:43:14.293Z,10.10
2018-03-30T06:44:14.237Z,11.00
2018-03-30T06:45:14.099Z,10.70
2018-03-30T06:46:13.997Z,10.50
2018-03-30T06:47:13.896Z,11.10
2018-03-30T06:48:13.790Z,10.90
2018-03-30T06:49:13.698Z,10.20
2018-03-30T06:50:13.595Z,9.40
2018-03-30T06:51:13.491Z,10.00
2018-03-30T06:52:13.388Z,9.40
2018-03-30T06:53:13.298Z,9.50
2018-03-30T06:54:13.195Z,9.20
2018-03-30T06:55:13.092Z,9.70
2018-03-30T06:56:12.988Z,8.70
2018-03-30T06:57:12.897Z,9.50
2018-03-30T06:58:12.793Z,9.80
2018-03-30T06:59:12.940Z,9.70
2018-03-30T07:00:12.586Z,9.60
2018-03-30T07:01:12.496Z,9.90
2018-03-30T07:02:12.386Z,9.60
2018-03-30T07:03:12.290Z,9.90
2018-03-30T07:04:12.187Z,9.40
2018-03-30T07:05:12.094Z,10.10
2018-03-30T07:06:11.991Z,10.30
2018-03-30T07:07:11.888Z,10.40
2018-03-30T07:08:11.790Z,9.30
2018-03-30T07:09:11.709Z,10.60
2018-03-30T07:10:11.591Z,9.60
2018-03-30T07:11:11.488Z,10.30
2018-03-30T07:12:11.385Z,9.70
2018-03-30T07:13:11.303Z,9.80
2018-03-30T07:14:11.190Z,9.80
2018-03-30T07:15:11.087Z,10.30
2018-03-30T07:16:10.989Z,9.90
2018-03-30T07:17:10.893Z,10.10
2018-03-30T07:18:10.791Z,9.70
2018-03-30T07:19:10.938Z,10.00
2018-03-30T07:20:10.583Z,9.80
2018-03-30T07:21:10.493Z,9.90
2018-03-30T07:22:10.388Z,9.60
2018-03-30T07:23:10.285Z,10.30
2018-03-30T07:24:10.182Z,10.20
2018-03-30T07:25:10.079Z,10.90
2018-03-30T07:26:09.989Z,10.50
2018-03-30T07:27:09.886Z,10.70
2018-03-30T07:28:09.782Z,10.60
2018-03-30T07:29:09.682Z,10.20
2018-03-30T07:30:09.586Z,11.50
2018-03-30T07:31:09.485Z,10.80
2018-03-30T07:32:09.380Z,11.00
2018-03-30T07:33:09.277Z,10.80
2018-03-30T07:34:09.190Z,11.20
2018-03-30T07:35:09.085Z,10.60
2018-03-30T07:36:08.980Z,10.30
2018-03-30T07:37:08.878Z,11.20
2018-03-30T07:38:08.774Z,11.00
2018-03-30T07:39:08.671Z,10.40
2018-03-30T07:40:08.579Z,10.60
2018-03-30T07:41:08.476Z,11.20
2018-03-30T07:42:08.372Z,11.30
2018-03-30T07:43:08.270Z,11.30
2018-03-30T07:44:08.165Z,11.60
2018-03-30T07:45:08.078Z,10.90
2018-03-30T07:46:07.971Z,11.50
2018-03-30T07:47:07.869Z,11.40
2018-03-30T07:48:07.766Z,11.20
2018-03-30T07:49:07.662Z,11.20
2018-03-30T07:50:07.570Z,11.60
2018-03-30T07:51:07.467Z,12.30
2018-03-30T07:52:07.364Z,11.40
2018-03-30T07:53:07.260Z,11.30
2018-03-30T07:54:07.159Z,11.20
2018-03-30T07:55:07.068Z,10.70
2018-03-30T07:56:06.965Z,11.60
2018-03-30T07:57:06.861Z,10.80
2018-03-30T07:58:06.762Z,11.90
2018-03-30T07:59:06.916Z,11.40
2018-03-30T08:00:06.562Z,11.00
2018-03-30T08:01:06.460Z,11.60
2018-03-30T08:02:06.355Z,11.90
2018-03-30T08:03:06.254Z,11.90
2018-03-30T08:04:06.162Z,11.80
2018-03-30T08:05:06.059Z,11.10
2018-03-30T08:06:05.956Z,11.00
2018-03-30T08:07:05.853Z,11.50
2018-03-30T08:08:05.761Z,11.70
2018-03-30T08:09:05.704Z,11.80
2018-03-30T08:10:05.555Z,11.70
2018-03-30T08:11:05.450Z,12.20
2018-03-30T08:12:05.361Z,12.20
2018-03-30T08:13:05.258Z,12.60
2018-03-30T08:14:05.154Z,12.30
2018-03-30T08:15:05.052Z,11.80
2018-03-30T08:16:04.962Z,12.40
2018-03-30T08:17:04.876Z,11.50
2018-03-30T08:18:04.752Z,11.70
2018-03-30T08:19:04.949Z,12.10
2018-03-30T08:20:04.558Z,12.40
2018-03-30T08:21:04.475Z,12.80
2018-03-30T08:22:04.362Z,12.40
2018-03-30T08:23:04.249Z,12.50
2018-03-30T08:24:04.160Z,12.90
2018-03-30T08:25:04.055Z,12.90
2018-03-30T08:26:03.950Z,12.00
2018-03-30T08:27:03.850Z,12.70
2018-03-30T08:28:03.746Z,12.40
2018-03-30T08:29:03.655Z,13.40
2018-03-30T08:30:03.552Z,13.30
2018-03-30T08:31:03.450Z,13.50
2018-03-30T08:32:03.357Z,13.20
2018-03-30T08:33:03.253Z,12.90
2018-03-30T08:34:03.149Z,12.70
2018-03-30T08:35:03.046Z,13.60
2018-03-30T08:36:02.945Z,12.70
2018-03-30T08:37:02.853Z,13.30
2018-03-30T08:38:02.749Z,12.90
2018-03-30T08:39:02.901Z,13.30
2018-03-30T08:40:02.554Z,13.50
2018-03-30T08:41:02.452Z,13.30
2018-03-30T08:42:02.347Z,14.10
2018-03-30T08:43:02.247Z,13.60
2018-03-30T08:44:02.155Z,14.60
2018-03-30T08:45:02.052Z,15.00
2018-03-30T08:46:01.949Z,14.90
2018-03-30T08:47:01.845Z,14.70
2018-03-30T08:48:01.754Z,14.30
2018-03-30T08:49:01.661Z,15.10
2018-03-30T08:50:01.550Z,15.10
2018-03-30T08:51:01.457Z,16.10
2018-03-30T08:52:01.362Z,15.60
2018-03-30T08:53:01.250Z,15.50
2018-03-30T08:54:01.150Z,16.20
2018-03-30T08:55:01.055Z,16.00
2018-03-30T08:56:00.952Z,16.00
2018-03-30T08:57:00.848Z,16.20
2018-03-30T08:58:00.746Z,16.20
2018-03-30T08:59:00.656Z,16.50
2018-03-30T09:00:00.552Z,17.10
2018-03-30T09:01:00.450Z,17.40
2018-03-30T09:02:00.356Z,16.10
2018-03-30T09:03:00.253Z,15.80
2018-03-30T09:04:00.150Z,16.50
2018-03-30T09:05:00.050Z,16.80
2018-03-30T09:05:59.958Z,17.10
2018-03-30T09:06:59.853Z,16.90
2018-03-30T09:07:59.750Z,17.20
2018-03-30T09:08:59.663Z,16.50
2018-03-30T09:09:59.573Z,16.20
2018-03-30T09:10:59.452Z,17.50
2018-03-30T09:11:59.348Z,16.90
2018-03-30T09:12:59.258Z,17.30
2018-03-30T09:13:59.176Z,17.10
2018-03-30T09:14:59.054Z,16.90
2018-03-30T09:15:58.949Z,17.40
2018-03-30T09:16:58.857Z,17.40
2018-03-30T09:17:58.768Z,16.70
2018-03-30T09:18:58.901Z,17.50
2018-03-30T09:19:58.560Z,17.50
2018-03-30T09:20:58.457Z,17.10
2018-03-30T09:21:58.359Z,17.30
2018-03-30T09:22:58.263Z,17.90
2018-03-30T09:23:58.159Z,17.70
2018-03-30T09:24:58.056Z,17.60
2018-03-30T09:25:57.952Z,17.60
2018-03-30T09:26:57.862Z,16.50
2018-03-30T09:27:57.758Z,16.60
2018-03-30T09:28:57.656Z,16.50
2018-03-30T09:29:57.564Z,16.50
2018-03-30T09:30:57.461Z,17.40
2018-03-30T09:31:57.358Z,17.60
2018-03-30T09:32:57.254Z,16.90
2018-03-30T09:33:57.164Z,17.30
2018-03-30T09:34:57.061Z,17.00
2018-03-30T09:35:56.957Z,16.60
2018-03-30T09:36:56.865Z,17.40
2018-03-30T09:37:56.762Z,17.20
2018-03-30T09:38:56.661Z,16.90
2018-03-30T09:39:56.561Z,17.00
2018-03-30T09:40:56.465Z,17.70
2018-03-30T09:41:56.363Z,18.30
2018-03-30T09:42:56.262Z,17.90
2018-03-30T09:43:56.168Z,17.00
2018-03-30T09:44:56.064Z,18.10
2018-03-30T09:45:55.971Z,17.50
2018-03-30T09:46:55.871Z,17.90
2018-03-30T09:47:55.767Z,18.00
2018-03-30T09:48:55.665Z,17.90
2018-03-30T09:49:55.572Z,18.20
2018-03-30T09:50:55.469Z,17.80
2018-03-30T09:51:55.366Z,18.30
2018-03-30T09:52:55.317Z,18.00
2018-03-30T09:53:55.177Z,18.50
2018-03-30T09:54:55.070Z,18.60
2018-03-30T09:55:54.966Z,18.00
2018-03-30T09:56:54.875Z,18.50
2018-03-30T09:57:54.784Z,17.30
2018-03-30T09:58:54.680Z,18.40
2018-03-30T09:59:54.577Z,19.10
2018-03-30T10:00:54.485Z,18.60
2018-03-30T10:01:54.383Z,18.20
2018-03-30T10:02:54.279Z,18.60
2018-03-30T10:03:54.176Z,18.20
2018-03-30T10:04:54.086Z,18.50
2018-03-30T10:05:53.983Z,17.70
2018-03-30T10:06:53.879Z,18.70
2018-03-30T10:07:53.788Z,18.20
2018-03-30T10:08:53.685Z,17.70
2018-03-30T10:09:53.596Z,17.00
2018-03-30T10:10:53.491Z,17.90
2018-03-30T10:11:53.388Z,17.60
2018-03-30T10:12:53.296Z,17.80
2018-03-30T10:13:53.193Z,18.60
2018-03-30T10:14:53.091Z,19.10
2018-03-30T10:15:53.000Z,18.00
2018-03-30T10:16:52.896Z,18.40
2018-03-30T10:17:52.805Z,18.70
2018-03-30T10:18:52.701Z,18.90
2018-03-30T10:19:52.598Z,18.60
2018-03-30T10:20:52.507Z,19.20
2018-03-30T10:21:52.404Z,17.60
2018-03-30T10:22:52.313Z,18.20
2018-03-30T10:23:52.211Z,17.90
2018-03-30T10:24:52.107Z,18.70
2018-03-30T10:25:52.017Z,17.20
2018-03-30T10:26:51.914Z,18.80
2018-03-30T10:27:51.821Z,19.10
2018-03-30T10:28:51.718Z,18.40
2018-03-30T10:29:51.629Z,18.50
2018-03-30T10:30:51.526Z,18.80
2018-03-30T10:31:51.421Z,17.80
2018-03-30T10:32:51.330Z,17.90
2018-03-30T10:33:51.226Z,17.50
2018-03-30T10:34:51.137Z,18.40
2018-03-30T10:35:51.033Z,18.60
2018-03-30T10:36:50.941Z,18.70
2018-03-30T10:37:50.841Z,19.20
2018-03-30T10:38:50.985Z,19.00
2018-03-30T10:39:50.648Z,18.70
2018-03-30T10:40:50.542Z,18.90
2018-03-30T10:41:50.438Z,19.10
2018-03-30T10:42:50.346Z,17.40
2018-03-30T10:43:50.243Z,18.20
2018-03-30T10:44:50.140Z,18.80
2018-03-30T10:45:50.050Z,18.80
2018-03-30T10:46:49.946Z,17.70
2018-03-30T10:47:49.858Z,18.50
2018-03-30T10:48:49.752Z,19.00
2018-03-30T10:49:49.651Z,18.00
2018-03-30T10:50:49.558Z,19.40
2018-03-30T10:51:49.467Z,18.80
2018-03-30T10:52:49.351Z,19.20
2018-03-30T10:53:49.260Z,18.70
2018-03-30T10:54:49.157Z,18.90
2018-03-30T10:55:49.053Z,18.70
2018-03-30T10:56:48.967Z,19.50
2018-03-30T10:57:48.860Z,19.30
2018-03-30T10:58:49.057Z,18.80
2018-03-30T10:59:48.666Z,18.30
2018-03-30T11:00:48.574Z,18.10
2018-03-30T11:01:48.459Z,18.60
2018-03-30T11:02:48.368Z,18.70
2018-03-30T11:03:48.267Z,18.20
2018-03-30T11:04:48.163Z,17.90
2018-03-30T11:05:48.071Z,19.40
2018-03-30T11:06:47.967Z,19.00
2018-03-30T11:07:47.863Z,19.30
2018-03-30T11:08:47.763Z,19.70
2018-03-30T11:09:47.674Z,18.70
2018-03-30T11:10:47.570Z,18.90
2018-03-30T11:11:47.464Z,18.50
2018-03-30T11:12:47.372Z,19.50
2018-03-30T11:13:47.271Z,18.50
2018-03-30T11:14:47.165Z,19.60
2018-03-30T11:15:47.063Z,19.90
2018-03-30T11:16:46.971Z,19.30
2018-03-30T11:17:46.870Z,19.60
2018-03-30T11:18:47.065Z,18.90
2018-03-30T11:19:46.673Z,19.50
2018-03-30T11:20:46.570Z,18.40
2018-03-30T11:21:46.467Z,19.20
2018-03-30T11:22:46.367Z,19.20
2018-03-30T11:23:46.273Z,19.00
2018-03-30T11:24:46.174Z,18.90
2018-03-30T11:25:46.068Z,19.60
2018-03-30T11:26:45.964Z,17.20
2018-03-30T11:27:45.872Z,19.00
2018-03-30T11:28:45.769Z,18.30
2018-03-30T11:29:45.666Z,18.60
2018-03-30T11:30:45.566Z,18.80
2018-03-30T11:31:45.472Z,18.30
2018-03-30T11:32:45.368Z,18.40
2018-03-30T11:33:45.266Z,18.50
2018-03-30T11:34:45.166Z,18.30
2018-03-30T11:35:45.070Z,18.00
2018-03-30T11:36:44.967Z,17.80
2018-03-30T11:37:44.909Z,16.60
2018-03-30T11:38:45.065Z,18.40
2018-03-30T11:39:44.670Z,18.60
2018-03-30T11:40:44.567Z,16.90
2018-03-30T11:41:44.464Z,17.50
2018-03-30T11:42:44.362Z,17.30
2018-03-30T11:43:44.269Z,17.30
2018-03-30T11:44:44.186Z,17.10
2018-03-30T11:45:44.063Z,17.80
2018-03-30T11:46:43.959Z,18.50
2018-03-30T11:47:43.857Z,17.90
2018-03-30T11:48:43.766Z,16.80
2018-03-30T11:49:43.663Z,17.20
2018-03-30T11:50:43.559Z,17.40
2018-03-30T11:51:43.455Z,17.80
2018-03-30T11:52:43.365Z,16.80
2018-03-30T11:53:43.261Z,18.00
2018-03-30T11:54:43.157Z,17.30
2018-03-30T11:55:43.066Z,17.40
2018-03-30T11:56:42.952Z,16.50
2018-03-30T11:57:42.861Z,15.40
2018-03-30T11:58:42.758Z,17.00
2018-03-30T11:59:42.654Z,16.80
2018-03-30T12:00:42.551Z,17.30
2018-03-30T12:01:42.459Z,15.70
2018-03-30T12:02:42.356Z,15.70
2018-03-30T12:03:42.253Z,16.40
2018-03-30T12:04:42.154Z,16.30
2018-03-30T12:05:42.047Z,16.80
2018-03-30T12:06:41.956Z,15.80
2018-03-30T12:07:41.852Z,15.30
2018-03-30T12:08:41.749Z,15.90
2018-03-30T12:09:41.646Z,15.80
2018-03-30T12:10:41.554Z,16.10
2018-03-30T12:11:41.451Z,15.80
2018-03-30T12:12:41.348Z,16.40
2018-03-30T12:13:41.245Z,16.00
2018-03-30T12:14:41.143Z,16.20
2018-03-30T12:15:41.051Z,15.30
2018-03-30T12:16:40.948Z,16.20
2018-03-30T12:17:40.844Z,16.50
2018-03-30T12:18:40.990Z,16.30
2018-03-30T12:19:40.649Z,16.20
2018-03-30T12:20:40.546Z,16.20
2018-03-30T12:21:40.445Z,15.50
2018-03-30T12:22:40.340Z,16.40
2018-03-30T12:23:40.248Z,16.00
2018-03-30T12:24:40.146Z,15.90
2018-03-30T12:25:40.043Z,16.00
2018-03-30T12:26:39.941Z,16.10
2018-03-30T12:27:39.836Z,16.20
2018-03-30T12:28:39.744Z,15.10
2018-03-30T12:29:39.645Z,15.80
2018-03-30T12:30:39.538Z,16.00
2018-03-30T12:31:39.435Z,15.70
2018-03-30T12:32:39.345Z,15.50
2018-03-30T12:33:39.241Z,16.20
2018-03-30T12:34:39.138Z,14.30
2018-03-30T12:35:39.034Z,15.80
2018-03-30T12:36:38.943Z,16.20
2018-03-30T12:37:38.840Z,15.70
2018-03-30T12:38:38.990Z,14.90
2018-03-30T12:39:38.633Z,15.90
2018-03-30T12:40:38.542Z,15.20
2018-03-30T12:41:38.440Z,15.40
2018-03-30T12:42:38.337Z,15.50
2018-03-30T12:43:38.233Z,15.40
2018-03-30T12:44:38.142Z,15.60
2018-03-30T12:45:38.038Z,15.00
2018-03-30T12:46:37.935Z,15.70
2018-03-30T12:47:37.836Z,15.10
2018-03-30T12:48:37.730Z,14.30
2018-03-30T12:49:37.639Z,15.70
2018-03-30T12:50:37.535Z,14.80
2018-03-30T12:51:37.431Z,15.40
2018-03-30T12:52:37.329Z,15.10